createdAt,value
2023-03-05T00:00:23.898Z,59.90
2023-03-05T00:02:51.544Z,55.85
2023-03-05T00:05:19.259Z,62.85
2023-03-05T00:07:48.934Z,55.97
2023-03-05T00:10:17.048Z,60.60
2023-03-05T00:12:44.660Z,60.85
2023-03-05T00:15:12.907Z,58.22
2023-03-05T00:17:40.496Z,55.65
2023-03-05T00:20:09.612Z,58.72
2023-03-05T00:22:37.324Z,58.50
2023-03-05T00:25:07.473Z,60.92
2023-03-05T00:27:35.080Z,54.97
2023-03-05T00:30:02.869Z,60.72
2023-03-05T00:32:30.792Z,60.03
2023-03-05T00:34:58.439Z,60.15
2023-03-05T00:37:26.036Z,63.92
2023-03-05T00:39:53.640Z,64.47
2023-03-05T00:42:22.586Z,69.60
2023-03-05T00:44:50.167Z,65.15
2023-03-05T00:47:18.460Z,58.15
2023-03-05T00:49:46.333Z,67.63
2023-03-05T00:52:13.954Z,60.72
2023-03-05T00:54:41.509Z,66.72
2023-03-05T00:57:09.087Z,62.78
2023-03-05T00:59:38.024Z,67.82
2023-03-05T01:02:05.852Z,70.18
2023-03-05T01:04:33.687Z,70.28
2023-03-05T01:07:01.319Z,64.53
2023-03-05T01:09:28.991Z,69.93
2023-03-05T01:11:56.586Z,72.43
2023-03-05T01:14:24.222Z,65.53
2023-03-05T01:16:53.133Z,67.05
2023-03-05T01:19:20.749Z,63.83
2023-03-05T01:21:48.323Z,66.97
2023-03-05T01:24:15.939Z,69.55
2023-03-05T01:26:43.549Z,60.55
2023-03-05T01:29:11.177Z,67.57
2023-03-05T01:31:38.848Z,60.50
2023-03-05T01:34:07.924Z,64.03
2023-03-05T01:36:35.668Z,69.18
2023-03-05T01:39:03.659Z,65.15
2023-03-05T01:41:31.274Z,67.40
2023-03-05T01:43:58.930Z,64.43
2023-03-05T01:46:29.990Z,69.47
2023-03-05T01:49:20.058Z,59.53
2023-03-05T01:51:55.047Z,58.83
2023-03-05T01:54:24.193Z,69.10
2023-03-05T01:56:53.057Z,67.18
2023-03-05T01:59:20.799Z,56.80
2023-03-05T02:01:53.011Z,66.45
2023-03-05T02:04:23.123Z,55.78
2023-03-05T02:06:52.050Z,65.85
2023-03-05T02:09:23.359Z,67.70
2023-03-05T02:11:51.451Z,67.75
2023-03-05T02:14:20.579Z,67.00
2023-03-05T02:16:48.261Z,62.25
2023-03-05T02:19:15.857Z,65.88
2023-03-05T02:21:46.228Z,67.85
2023-03-05T02:24:14.942Z,58.92
2023-03-05T02:26:44.740Z,70.72
2023-03-05T02:29:14.563Z,71.32
2023-03-05T02:31:42.194Z,84.32
2023-03-05T02:34:09.975Z,70.72
2023-03-05T02:36:37.549Z,70.40
2023-03-05T02:39:06.538Z,62.85
2023-03-05T02:41:34.137Z,68.25
2023-03-05T02:44:01.799Z,62.67
2023-03-05T02:46:29.846Z,57.38
2023-03-05T02:48:57.412Z,60.90
2023-03-05T02:51:25.030Z,69.03
2023-03-05T02:53:52.704Z,70.72
2023-03-05T02:56:21.643Z,63.65
2023-03-05T02:58:49.241Z,62.95
2023-03-05T03:01:16.883Z,71.40
2023-03-05T03:03:44.574Z,68.78
2023-03-05T03:06:12.198Z,66.47
2023-03-05T03:08:39.828Z,71.50
2023-03-05T03:11:09.011Z,69.55
2023-03-05T03:13:38.030Z,61.53
2023-03-05T03:16:06.538Z,68.32
2023-03-05T03:18:34.354Z,73.57
2023-03-05T03:21:02.226Z,71.60
2023-03-05T03:23:30.156Z,72.15
2023-03-05T03:25:58.240Z,75.13
2023-03-05T03:28:26.344Z,77.82
2023-03-05T03:30:55.383Z,74.50
2023-03-05T03:33:23.021Z,69.82
2023-03-05T03:35:50.789Z,71.15
2023-03-05T03:38:18.449Z,67.97
2023-03-05T03:40:46.062Z,73.03
2023-03-05T03:43:13.691Z,65.80
2023-03-05T03:45:42.362Z,64.28
2023-03-05T03:48:11.436Z,70.13
2023-03-05T03:50:39.956Z,63.38
2023-03-05T03:53:07.640Z,66.88
2023-03-05T03:55:35.405Z,78.30
2023-03-05T03:58:03.361Z,73.00
2023-03-05T04:00:31.013Z,71.00
2023-03-05T04:02:58.645Z,69.25
2023-03-05T04:05:27.735Z,67.53
2023-03-05T04:07:55.533Z,71.35
2023-03-05T04:10:23.155Z,68.78
2023-03-05T04:12:50.785Z,67.10
2023-03-05T04:15:18.567Z,72.03
2023-03-05T04:17:46.174Z,71.38
2023-03-05T04:20:14.402Z,72.18
2023-03-05T04:22:43.361Z,83.28
2023-03-05T04:25:11.325Z,73.57
2023-03-05T04:27:40.308Z,67.10
2023-03-05T04:30:09.761Z,79.38
2023-03-05T04:32:37.405Z,71.38
2023-03-05T04:35:05.691Z,75.57
2023-03-05T04:37:33.386Z,79.10
2023-03-05T04:40:02.432Z,78.50
2023-03-05T04:42:30.025Z,64.32
2023-03-05T04:44:57.707Z,74.55
2023-03-05T04:47:25.316Z,73.32
2023-03-05T04:49:53.054Z,78.10
2023-03-05T04:52:20.656Z,72.25
2023-03-05T04:54:48.231Z,81.20
2023-03-05T04:57:17.456Z,72.90
2023-03-05T04:59:45.030Z,81.70
2023-03-05T05:02:12.672Z,71.35
2023-03-05T05:04:40.467Z,76.53
2023-03-05T05:07:08.593Z,76.05
2023-03-05T05:09:36.244Z,83.35
2023-03-05T05:12:03.883Z,77.22
2023-03-05T05:14:32.791Z,69.18
2023-03-05T05:17:01.568Z,79.72
2023-03-05T05:19:29.238Z,72.85
2023-03-05T05:21:56.848Z,82.53
2023-03-05T05:24:24.501Z,73.00
2023-03-05T05:26:52.393Z,89.22
2023-03-05T05:29:19.983Z,83.13
2023-03-05T05:31:49.014Z,84.03
2023-03-05T05:34:17.208Z,81.95
2023-03-05T05:36:44.758Z,82.32
2023-03-05T05:39:12.323Z,72.18
2023-03-05T05:41:39.886Z,80.38
2023-03-05T05:44:07.465Z,72.38
2023-03-05T05:46:35.097Z,74.90
2023-03-05T05:49:04.198Z,74.88
2023-03-05T05:51:31.907Z,79.93
2023-03-05T05:53:59.509Z,81.60
2023-03-05T05:56:28.002Z,75.07
2023-03-05T05:58:55.664Z,77.43
2023-03-05T06:01:25.312Z,82.85
2023-03-05T06:03:53.254Z,77.60
2023-03-05T06:06:24.180Z,71.68
2023-03-05T06:08:52.293Z,77.85
2023-03-05T06:11:20.451Z,76.90
2023-03-05T06:13:48.572Z,80.13
2023-03-05T06:16:18.464Z,74.50
2023-03-05T06:18:46.259Z,76.65
2023-03-05T06:21:16.150Z,72.82
2023-03-05T06:23:46.257Z,77.20
2023-03-05T06:26:15.741Z,72.75
2023-03-05T06:28:43.418Z,74.63
2023-03-05T06:31:12.861Z,73.05
2023-03-05T06:33:42.143Z,72.97
2023-03-05T06:36:11.536Z,74.63
2023-03-05T06:38:39.418Z,71.70
2023-03-05T06:41:11.529Z,70.10
2023-03-05T06:46:08.701Z,66.93
2023-03-05T06:48:36.378Z,69.30
2023-03-05T06:51:04.197Z,68.45
2023-03-05T06:53:32.019Z,68.68
2023-03-05T06:56:02.159Z,70.78
2023-03-05T06:58:31.183Z,73.28
2023-03-05T07:00:58.852Z,75.78
2023-03-05T07:03:26.489Z,71.38
2023-03-05T07:05:54.080Z,66.35
2023-03-05T07:08:21.688Z,60.97
2023-03-05T07:10:49.284Z,62.35
2023-03-05T07:13:16.904Z,58.58
2023-03-05T07:15:45.862Z,65.05
2023-03-05T07:18:13.527Z,55.97
2023-03-05T07:20:41.401Z,60.70
2023-03-05T07:23:09.025Z,58.53
2023-03-05T07:25:37.339Z,62.83
2023-03-05T07:28:05.411Z,53.30
2023-03-05T07:30:33.114Z,51.42
2023-03-05T07:33:02.079Z,52.55
2023-03-05T07:35:29.720Z,54.15
2023-03-05T07:37:57.323Z,49.63
2023-03-05T07:40:25.026Z,53.30
2023-03-05T07:42:54.139Z,46.97
2023-03-05T07:45:21.735Z,48.35
2023-03-05T07:47:51.067Z,48.38
2023-03-05T07:50:21.414Z,42.53
2023-03-05T07:52:49.011Z,41.63
2023-03-05T07:55:16.644Z,43.92
2023-03-05T07:57:44.277Z,50.22
2023-03-05T08:00:13.092Z,52.65
2023-03-05T08:02:40.721Z,54.78
2023-03-05T08:05:08.945Z,48.25
2023-03-05T08:07:37.849Z,43.45
2023-03-05T08:10:06.294Z,41.33
2023-03-05T08:12:33.955Z,48.38
2023-03-05T08:15:01.525Z,46.25
2023-03-05T08:17:29.133Z,42.55
2023-03-05T08:20:00.121Z,48.78
2023-03-05T08:22:27.864Z,48.13
2023-03-05T08:24:56.805Z,42.63
2023-03-05T08:27:24.568Z,45.47
2023-03-05T08:29:52.130Z,37.92
2023-03-05T08:32:19.811Z,45.90
2023-03-05T08:34:47.416Z,41.72
2023-03-05T08:37:15.059Z,52.40
2023-03-05T08:39:42.640Z,46.35
2023-03-05T08:42:11.561Z,42.45
2023-03-05T08:44:39.151Z,43.30
2023-03-05T08:47:06.979Z,40.78
2023-03-05T08:49:34.596Z,35.35
2023-03-05T08:52:02.193Z,36.47
2023-03-05T08:54:29.801Z,45.83
2023-03-05T08:56:57.365Z,38.30
2023-03-05T08:59:26.334Z,40.63
2023-03-05T09:01:54.035Z,43.05
2023-03-05T09:04:21.772Z,42.13
2023-03-05T09:06:49.337Z,44.08
2023-03-05T09:09:16.952Z,38.90
2023-03-05T09:11:44.585Z,39.83
2023-03-05T09:14:12.266Z,33.28
2023-03-05T09:16:41.582Z,44.13
2023-03-05T09:19:10.664Z,40.78
2023-03-05T09:21:38.333Z,39.13
2023-03-05T09:24:06.115Z,43.72
2023-03-05T09:26:33.766Z,42.80
2023-03-05T09:29:01.335Z,49.88
2023-03-05T09:31:29.136Z,44.08
2023-03-05T09:33:58.094Z,46.00
2023-03-05T09:36:27.466Z,55.22
2023-03-05T09:38:55.198Z,52.03
2023-03-05T09:41:31.848Z,42.63
2023-03-05T09:44:08.797Z,51.10
2023-03-05T09:46:44.926Z,42.88
2023-03-05T09:49:17.715Z,48.20
2023-03-05T09:51:47.619Z,49.78
2023-03-05T09:54:18.682Z,41.47
2023-03-05T09:56:48.906Z,36.00
2023-03-05T09:59:23.655Z,47.10
2023-03-05T10:01:53.460Z,52.60
2023-03-05T10:04:25.839Z,44.75
2023-03-05T10:06:58.095Z,43.20
2023-03-05T10:09:40.192Z,47.70
2023-03-05T10:12:11.772Z,53.40
2023-03-05T10:14:40.946Z,53.55
2023-03-05T10:17:47.352Z,54.20
2023-03-05T10:20:24.254Z,53.72
2023-03-05T10:23:05.649Z,57.95
2023-03-05T10:25:47.862Z,54.70
2023-03-05T10:31:00.452Z,50.53
2023-03-05T10:33:33.596Z,50.00
2023-03-05T10:36:14.037Z,49.13
2023-03-05T10:39:01.807Z,46.58
2023-03-05T10:41:33.974Z,48.47
2023-03-05T10:46:32.850Z,43.97
2023-03-05T10:49:05.344Z,51.08
2023-03-05T10:51:36.168Z,55.78
2023-03-05T10:54:07.223Z,46.15
2023-03-05T10:56:34.844Z,42.55
2023-03-05T10:59:02.420Z,49.70
2023-03-05T11:02:08.602Z,47.80
2023-03-05T11:04:37.881Z,46.30
2023-03-05T11:07:30.818Z,47.90
2023-03-05T11:10:21.316Z,43.22
2023-03-05T11:12:49.001Z,45.33
2023-03-05T11:15:27.778Z,43.92
2023-03-05T11:18:08.133Z,40.38
2023-03-05T11:20:36.817Z,50.72
2023-03-05T11:23:10.889Z,39.25
2023-03-05T11:25:53.279Z,38.78
2023-03-05T11:31:07.600Z,39.58
2023-03-05T11:33:36.459Z,43.85
2023-03-05T11:36:25.091Z,35.42
2023-03-05T11:38:56.656Z,43.53
2023-03-05T11:41:34.136Z,38.58
2023-03-05T11:44:04.413Z,38.30
2023-03-05T11:46:38.690Z,36.45
2023-03-05T11:49:07.219Z,35.60
2023-03-05T11:51:42.146Z,32.63
2023-03-05T11:54:17.026Z,38.22
2023-03-05T11:56:45.452Z,40.38
2023-03-05T11:59:16.199Z,36.40
2023-03-05T12:01:47.876Z,36.03
2023-03-05T12:04:16.407Z,37.20
2023-03-05T12:06:45.897Z,34.70
2023-03-05T12:09:20.018Z,32.25
2023-03-05T12:11:49.818Z,35.88
2023-03-05T12:14:22.339Z,34.88
2023-03-05T12:16:53.328Z,32.70
2023-03-05T12:19:41.237Z,31.20
2023-03-05T12:22:18.305Z,33.63
2023-03-05T12:24:47.478Z,31.73
2023-03-05T12:27:17.315Z,33.50
2023-03-05T12:29:50.397Z,32.95
2023-03-05T12:32:53.597Z,33.53
2023-03-05T12:35:30.108Z,31.25
2023-03-05T12:38:06.148Z,20.95
2023-03-05T12:40:39.715Z,24.38
2023-03-05T12:43:07.578Z,21.90
2023-03-05T12:45:38.028Z,20.65
2023-03-05T12:48:43.656Z,21.05
2023-03-05T12:51:16.425Z,20.50
2023-03-05T12:53:44.044Z,23.33
2023-03-05T12:56:19.954Z,20.00
2023-03-05T12:58:50.326Z,22.38
2023-03-05T13:01:41.374Z,20.77
2023-03-05T13:04:15.838Z,18.85
2023-03-05T13:06:43.599Z,20.05
2023-03-05T13:09:18.130Z,23.05
2023-03-05T13:11:49.577Z,22.88
2023-03-05T13:14:37.155Z,15.65
2023-03-05T13:17:39.162Z,22.85
2023-03-05T13:20:33.948Z,22.85
2023-03-05T13:23:16.079Z,26.63
2023-03-05T13:25:44.035Z,25.63
2023-03-05T13:28:14.686Z,23.92
2023-03-05T13:30:46.399Z,20.08
2023-03-05T13:33:18.917Z,28.33
2023-03-05T13:35:47.435Z,25.05
2023-03-05T13:38:24.729Z,29.30
2023-03-05T13:41:20.507Z,27.10
2023-03-05T13:43:50.698Z,29.58
2023-03-05T13:46:25.437Z,25.75
2023-03-05T13:48:53.046Z,25.30
2023-03-05T13:51:20.735Z,30.52
2023-03-05T13:53:48.625Z,27.02
2023-03-05T13:56:18.941Z,33.30
2023-03-05T13:58:53.240Z,28.58
2023-03-05T14:01:30.011Z,25.02
2023-03-05T14:03:59.005Z,26.50
2023-03-05T14:06:29.583Z,27.17
2023-03-05T14:09:04.367Z,24.85
2023-03-05T14:11:31.985Z,26.02
2023-03-05T14:14:07.562Z,28.45
2023-03-05T14:16:35.351Z,23.45
2023-03-05T14:19:04.816Z,24.63
2023-03-05T14:21:47.538Z,21.45
2023-03-05T14:24:21.424Z,25.48
2023-03-05T14:26:51.672Z,32.42
2023-03-05T14:29:23.608Z,22.92
2023-03-05T14:31:52.994Z,33.63
2023-03-05T14:34:25.616Z,25.23
2023-03-05T14:36:54.891Z,23.73
2023-03-05T14:39:28.777Z,29.05
2023-03-05T14:41:56.463Z,30.85
2023-03-05T14:44:26.522Z,27.95
2023-03-05T14:46:54.148Z,26.80
2023-03-05T14:49:21.780Z,24.58
2023-03-05T14:51:49.455Z,21.70
2023-03-05T14:54:22.023Z,21.80
2023-03-05T14:56:50.093Z,22.75
2023-03-05T14:59:18.109Z,24.90
2023-03-05T15:01:47.150Z,24.05
2023-03-05T15:04:19.043Z,23.77
2023-03-05T15:06:50.594Z,24.52
2023-03-05T15:09:19.721Z,22.85
2023-03-05T15:11:47.686Z,22.73
2023-03-05T15:14:15.292Z,28.75
2023-03-05T15:16:44.384Z,27.00
2023-03-05T15:19:14.009Z,25.38
2023-03-05T15:21:41.641Z,25.20
2023-03-05T15:24:11.271Z,21.67
2023-03-05T15:26:39.234Z,30.50
2023-03-05T15:29:06.841Z,27.23
2023-03-05T15:31:38.516Z,26.42
2023-03-05T15:34:06.461Z,26.92
2023-03-05T15:36:35.433Z,26.30
2023-03-05T15:39:03.204Z,27.13
2023-03-05T15:41:30.785Z,35.55
2023-03-05T15:43:58.395Z,28.92
2023-03-05T15:46:26.034Z,31.40
2023-03-05T15:48:53.709Z,29.38
2023-03-05T15:51:21.335Z,38.38
2023-03-05T15:53:50.281Z,29.08
2023-03-05T15:56:18.397Z,36.05
2023-03-05T15:58:46.251Z,39.10
2023-03-05T16:01:15.648Z,31.75
2023-03-05T16:03:43.286Z,38.92
2023-03-05T16:06:12.424Z,32.22
2023-03-05T16:08:40.401Z,33.08
2023-03-05T16:11:09.471Z,34.55
2023-03-05T16:13:37.299Z,39.13
2023-03-05T16:16:06.290Z,35.42
2023-03-05T16:18:36.027Z,36.72
2023-03-05T16:21:03.643Z,27.30
2023-03-05T16:23:31.337Z,30.25
2023-03-05T16:31:40.633Z,30.33
2023-03-05T16:34:08.373Z,27.95
2023-03-05T16:36:36.061Z,24.00
2023-03-05T16:39:05.424Z,25.50
2023-03-05T16:41:33.546Z,25.67
2023-03-05T16:44:01.222Z,25.65
2023-03-05T16:46:30.170Z,21.23
2023-03-05T16:48:59.621Z,25.83
2023-03-05T16:51:27.749Z,23.63
2023-03-05T16:53:55.888Z,20.98
2023-03-05T16:56:23.636Z,21.90
2023-03-05T16:58:53.359Z,20.77
2023-03-05T17:01:22.501Z,20.60
2023-03-05T17:03:50.808Z,27.65
2023-03-05T17:06:21.987Z,22.80
2023-03-05T17:08:50.815Z,21.73
2023-03-05T17:11:19.196Z,24.95
2023-03-05T17:13:48.963Z,20.45
2023-03-05T17:16:18.236Z,23.27
2023-03-05T17:18:46.316Z,21.98
2023-03-05T17:21:14.053Z,23.00
2023-03-05T17:23:43.784Z,27.88
2023-03-05T17:26:13.554Z,29.00
2023-03-05T17:28:41.344Z,22.05
2023-03-05T17:31:09.589Z,25.33
2023-03-05T17:33:38.274Z,22.73
2023-03-05T17:36:06.820Z,22.30
2023-03-05T17:38:34.452Z,26.52
2023-03-05T17:41:03.892Z,26.02
2023-03-05T17:43:31.566Z,22.98
2023-03-05T17:46:00.765Z,24.65
2023-03-05T17:48:28.601Z,22.98
2023-03-05T17:50:56.537Z,21.77
2023-03-05T17:53:24.192Z,20.10
2023-03-05T17:55:51.922Z,29.05
2023-03-05T17:58:20.975Z,24.92
2023-03-05T18:00:48.728Z,25.52
2023-03-05T18:03:16.437Z,33.60
2023-03-05T18:05:45.300Z,29.63
2023-03-05T18:08:13.342Z,27.80
2023-03-05T18:10:41.073Z,30.20
2023-03-05T18:13:08.762Z,26.35
2023-03-05T18:15:41.725Z,28.73
2023-03-05T18:18:09.487Z,28.20
2023-03-05T18:20:37.828Z,27.35
2023-03-05T18:23:06.880Z,58.30
2023-03-05T18:25:35.290Z,175.73
2023-03-05T18:28:04.718Z,91.20
2023-03-05T18:30:32.653Z,50.13
2023-03-05T18:33:01.768Z,35.55
2023-03-05T18:35:30.005Z,27.02
2023-03-05T18:37:58.395Z,27.05
2023-03-05T18:40:27.478Z,30.45
2023-03-05T18:42:55.554Z,32.63
2023-03-05T18:45:24.086Z,25.20
2023-03-05T18:47:54.096Z,37.53
2023-03-05T18:50:25.534Z,33.78
2023-03-05T18:52:53.765Z,28.33
2023-03-05T18:55:23.719Z,31.63
2023-03-05T18:57:51.877Z,31.45
2023-03-05T19:00:21.519Z,36.00
2023-03-05T19:02:49.395Z,37.55
2023-03-05T19:05:18.054Z,25.58
2023-03-05T19:07:47.396Z,27.42
2023-03-05T19:10:16.422Z,27.10
2023-03-05T19:12:49.904Z,27.98
2023-03-05T19:15:17.958Z,26.08
2023-03-05T19:17:45.916Z,24.98
2023-03-05T19:20:15.977Z,30.05
2023-03-05T19:22:43.990Z,28.15
2023-03-05T19:25:13.688Z,25.30
2023-03-05T19:27:41.434Z,26.98
2023-03-05T19:30:11.209Z,31.73
2023-03-05T19:32:38.930Z,28.65
2023-03-05T19:35:07.503Z,30.08
2023-03-05T19:37:35.194Z,29.90
2023-03-05T19:40:02.849Z,30.20
2023-03-05T19:42:31.883Z,35.92
2023-03-05T19:45:00.248Z,32.88
2023-03-05T19:47:27.911Z,29.08
2023-03-05T19:49:55.689Z,33.35
2023-03-05T19:52:23.712Z,32.75
2023-03-05T19:54:51.474Z,33.38
2023-03-05T19:57:19.085Z,29.42
2023-03-05T19:59:48.031Z,30.42
2023-03-05T20:02:19.350Z,37.95
2023-03-05T20:04:47.037Z,23.70
2023-03-05T20:07:14.656Z,33.83
2023-03-05T20:09:42.407Z,42.47
2023-03-05T20:12:10.344Z,37.25
2023-03-05T20:14:38.152Z,33.83
2023-03-05T20:17:07.157Z,39.85
2023-03-05T20:19:34.992Z,38.55
2023-03-05T20:22:02.711Z,36.45
2023-03-05T20:24:30.443Z,40.88
2023-03-05T20:26:58.070Z,40.25
2023-03-05T20:29:25.668Z,39.25
2023-03-05T20:31:56.362Z,33.67
2023-03-05T20:34:27.006Z,35.33
2023-03-05T20:36:54.860Z,34.10
2023-03-05T20:39:22.575Z,37.38
2023-03-05T20:41:51.197Z,39.22
2023-03-05T20:44:18.832Z,46.75
2023-03-05T20:46:52.527Z,63.30
2023-03-05T20:49:20.931Z,62.60
2023-03-05T20:51:51.081Z,46.03
2023-03-05T20:54:18.751Z,41.90
2023-03-05T20:56:46.412Z,63.38
2023-03-05T20:59:14.107Z,101.38
2023-03-05T21:01:41.972Z,154.82
2023-03-05T21:04:09.997Z,209.35
2023-03-05T21:06:37.965Z,133.88
2023-03-05T21:09:07.011Z,75.78
2023-03-05T21:11:35.796Z,45.45
2023-03-05T21:14:03.435Z,36.45
2023-03-05T21:16:31.176Z,40.97
2023-03-05T21:18:59.135Z,39.85
2023-03-05T21:21:26.815Z,48.38
2023-03-05T21:23:55.402Z,43.38
2023-03-05T21:26:24.424Z,52.38
2023-03-05T21:28:52.076Z,49.28
2023-03-05T21:31:21.234Z,47.22
2023-03-05T21:33:49.148Z,45.25
2023-03-05T21:36:18.546Z,41.42
2023-03-05T21:38:46.816Z,42.80
2023-03-05T21:41:14.468Z,43.20
2023-03-05T21:43:43.800Z,47.78
2023-03-05T21:46:11.735Z,42.40
2023-03-05T21:48:39.442Z,53.65
2023-03-05T21:51:08.148Z,39.38
2023-03-05T21:53:35.793Z,39.63
2023-03-05T21:56:20.968Z,45.45
2023-03-05T21:58:50.699Z,41.65
2023-03-05T22:01:20.966Z,37.97
2023-03-05T22:03:48.951Z,39.03
2023-03-05T22:06:18.339Z,35.15
2023-03-05T22:08:47.119Z,33.90
2023-03-05T22:11:16.946Z,33.30
2023-03-05T22:13:44.645Z,35.25
2023-03-05T22:16:22.298Z,32.58
2023-03-05T22:18:50.017Z,29.70
2023-03-05T22:21:18.966Z,32.70
2023-03-05T22:23:46.612Z,31.52
2023-03-05T22:26:14.333Z,38.47
2023-03-05T22:28:42.489Z,33.40
2023-03-05T22:31:10.604Z,34.38
2023-03-05T22:33:39.664Z,36.13
2023-03-05T22:36:11.690Z,39.55
2023-03-05T22:41:09.220Z,33.05
2023-03-05T22:43:37.417Z,30.35
2023-03-05T22:46:11.692Z,31.33
2023-03-05T22:48:40.877Z,32.20
2023-03-05T22:51:09.869Z,26.88
2023-03-05T22:53:37.647Z,31.33
2023-03-05T22:56:08.954Z,29.02
2023-03-05T22:58:36.993Z,44.45
2023-03-05T23:01:05.948Z,44.38
2023-03-05T23:03:33.644Z,38.72
2023-03-05T23:06:02.746Z,35.63
2023-03-05T23:08:30.396Z,35.17
2023-03-05T23:10:58.077Z,33.10
2023-03-05T23:13:25.706Z,30.25
2023-03-05T23:15:53.368Z,31.17
2023-03-05T23:18:20.982Z,34.00
2023-03-05T23:20:48.668Z,31.38
2023-03-05T23:23:17.679Z,31.95
2023-03-05T23:25:45.285Z,26.38
2023-03-05T23:28:13.216Z,33.55
2023-03-05T23:30:40.875Z,36.08
2023-03-05T23:33:09.597Z,28.98
2023-03-05T23:35:38.753Z,31.05
2023-03-05T23:38:08.296Z,27.95
2023-03-05T23:40:39.858Z,35.05
2023-03-05T23:43:07.646Z,27.73
2023-03-05T23:45:35.493Z,32.45
2023-03-05T23:48:03.180Z,31.52
2023-03-05T23:50:32.417Z,27.50
2023-03-05T23:53:02.123Z,29.15
2023-03-05T23:55:32.996Z,32.17
2023-03-05T23:58:02.123Z,27.67
